sim
Sign-in with your pilot id or email,
or register
Callsign
Passwort

Schedule Details

Flight Number: DLH2213
Departure: Berlin Tegel Airport (EDDT) at 19:25
Arrival: Munich Airport (EDDM) at 20:35
Route: Lufthansa Passenger Schedule. Enter filed route here before submitting Pirep.

Weather Information
Getting current METAR information for EDDT 240350Z 19006KT CAVOK 16/10 Q1002 NOSIG
Getting current METAR information for EDDM 240350Z VRB01KT CAVOK 10/10 Q1009 NOSIG

Schedule Frequency

Route Map